createdAt,value
2019-01-16T00:00:43.916Z,1002.48
2019-01-16T00:01:43.906Z,1002.43
2019-01-16T00:02:43.896Z,1002.41
2019-01-16T00:03:43.897Z,1002.53
2019-01-16T00:04:43.877Z,1002.37
2019-01-16T00:05:43.863Z,1002.47
2019-01-16T00:06:43.851Z,1002.59
2019-01-16T00:07:43.841Z,1002.44
2019-01-16T00:08:43.841Z,1002.41
2019-01-16T00:09:43.821Z,1002.36
2019-01-16T00:10:43.811Z,1002.41
2019-01-16T00:11:43.798Z,1002.39
2019-01-16T00:12:43.788Z,1002.33
2019-01-16T00:13:43.788Z,1002.43
2019-01-16T00:14:43.766Z,1002.37
2019-01-16T00:15:43.755Z,1002.45
2019-01-16T00:16:43.746Z,1002.42
2019-01-16T00:17:43.735Z,1002.42
2019-01-16T00:18:43.733Z,1002.48
2019-01-16T00:19:43.713Z,1002.44
2019-01-16T00:20:43.705Z,1002.43
2019-01-16T00:21:43.691Z,1002.41
2019-01-16T00:22:43.681Z,1002.40
2019-01-16T00:23:43.687Z,1002.38
2019-01-16T00:24:43.659Z,1002.39
2019-01-16T00:25:43.651Z,1002.38
2019-01-16T00:26:43.645Z,1002.46
2019-01-16T00:27:43.630Z,1002.33
2019-01-16T00:28:43.626Z,1002.44
2019-01-16T00:29:43.604Z,1002.44
2019-01-16T00:30:43.595Z,1002.42
2019-01-16T00:31:43.587Z,1002.40
2019-01-16T00:32:43.572Z,1002.39
2019-01-16T00:33:43.600Z,1002.41
2019-01-16T00:34:43.551Z,1002.42
2019-01-16T00:35:43.541Z,1002.44
2019-01-16T00:36:43.533Z,1002.50
2019-01-16T00:37:43.519Z,1002.43
2019-01-16T00:38:43.508Z,1002.53
2019-01-16T00:39:43.513Z,1002.52
2019-01-16T00:40:43.505Z,1002.43
2019-01-16T00:41:43.475Z,1002.48
2019-01-16T00:42:43.466Z,1002.43
2019-01-16T00:43:43.458Z,1002.46
2019-01-16T00:44:43.465Z,1002.45
2019-01-16T00:45:43.432Z,1002.57
2019-01-16T00:46:43.422Z,1002.47
2019-01-16T00:47:43.411Z,1002.49
2019-01-16T00:48:43.405Z,1002.57
2019-01-16T00:49:43.404Z,1002.59
2019-01-16T00:50:43.380Z,1002.66
2019-01-16T00:51:43.369Z,1002.58
2019-01-16T00:52:43.359Z,1002.64
2019-01-16T00:53:43.348Z,1002.57
2019-01-16T00:54:43.348Z,1002.58
2019-01-16T00:55:43.329Z,1002.62
2019-01-16T00:56:43.318Z,1002.58
2019-01-16T00:57:43.306Z,1002.66
2019-01-16T00:58:43.294Z,1002.65
2019-01-16T00:59:43.296Z,1002.67
2019-01-16T01:00:43.276Z,1002.67
2019-01-16T01:01:43.265Z,1002.56
2019-01-16T01:02:43.255Z,1002.63
2019-01-16T01:03:43.241Z,1002.62
2019-01-16T01:04:43.244Z,1002.66
2019-01-16T01:05:43.222Z,1002.65
2019-01-16T01:06:43.216Z,1002.66
2019-01-16T01:07:43.200Z,1002.69
2019-01-16T01:08:43.188Z,1002.72
2019-01-16T01:09:43.188Z,1002.80
2019-01-16T01:10:43.166Z,1002.86
2019-01-16T01:11:43.155Z,1002.81
2019-01-16T01:12:43.144Z,1002.85
2019-01-16T01:13:43.134Z,1002.93
2019-01-16T01:14:43.139Z,1002.84
2019-01-16T01:15:43.113Z,1002.82
2019-01-16T01:16:43.101Z,1002.90
2019-01-16T01:17:43.090Z,1002.80
2019-01-16T01:18:43.079Z,1002.90
2019-01-16T01:19:43.070Z,1002.88
2019-01-16T01:20:43.069Z,1002.95
2019-01-16T01:21:43.051Z,1002.92
2019-01-16T01:22:43.037Z,1003.02
2019-01-16T01:23:43.028Z,1002.92
2019-01-16T01:24:43.015Z,1002.93
2019-01-16T01:25:43.016Z,1003.00
2019-01-16T01:26:42.992Z,1002.98
2019-01-16T01:27:42.990Z,1003.01
2019-01-16T01:28:42.974Z,1003.06
2019-01-16T01:29:42.965Z,1003.01
2019-01-16T01:30:42.962Z,1002.96
2019-01-16T01:31:42.943Z,1003.03
2019-01-16T01:32:42.930Z,1002.97
2019-01-16T01:33:42.918Z,1003.08
2019-01-16T01:34:42.912Z,1003.01
2019-01-16T01:35:42.910Z,1003.11
2019-01-16T01:36:42.885Z,1003.11
2019-01-16T01:37:42.877Z,1003.11
2019-01-16T01:38:42.864Z,1003.08
2019-01-16T01:39:42.856Z,1003.16
2019-01-16T01:40:42.857Z,1003.10
2019-01-16T01:41:42.833Z,1003.11
2019-01-16T01:42:42.823Z,1003.09
2019-01-16T01:43:42.814Z,1003.13
2019-01-16T01:44:42.804Z,1003.14
2019-01-16T01:45:42.801Z,1003.10
2019-01-16T01:46:42.784Z,1003.17
2019-01-16T01:47:42.769Z,1003.20
2019-01-16T01:48:42.760Z,1003.18
2019-01-16T01:49:42.749Z,1003.23
2019-01-16T01:50:42.749Z,1003.19
2019-01-16T01:51:42.729Z,1003.13
2019-01-16T01:52:42.716Z,1003.10
2019-01-16T01:53:42.711Z,1003.29
2019-01-16T01:54:42.694Z,1003.21
2019-01-16T01:55:42.711Z,1003.21
2019-01-16T01:56:42.673Z,1003.17
2019-01-16T01:57:42.663Z,1003.22
2019-01-16T01:58:42.651Z,1003.29
2019-01-16T01:59:42.640Z,1003.28
2019-01-16T02:00:42.629Z,1003.34
2019-01-16T02:01:42.632Z,1003.29
2019-01-16T02:02:42.607Z,1003.30
2019-01-16T02:03:42.600Z,1003.29
2019-01-16T02:04:42.586Z,1003.31
2019-01-16T02:05:42.575Z,1003.32
2019-01-16T02:06:42.577Z,1003.30
2019-01-16T02:07:42.556Z,1003.24
2019-01-16T02:08:42.545Z,1003.28
2019-01-16T02:09:42.536Z,1003.28
2019-01-16T02:10:42.524Z,1003.41
2019-01-16T02:11:42.522Z,1003.29
2019-01-16T02:12:42.499Z,1003.27
2019-01-16T02:13:42.494Z,1003.31
2019-01-16T02:14:42.478Z,1003.41
2019-01-16T02:15:42.467Z,1003.35
2019-01-16T02:16:42.469Z,1003.41
2019-01-16T02:17:42.447Z,1003.45
2019-01-16T02:18:47.325Z,1003.42
2019-01-16T02:19:43.435Z,1003.46
2019-01-16T02:20:42.417Z,1003.45
2019-01-16T02:21:42.415Z,1003.36
2019-01-16T02:22:42.394Z,1003.49
2019-01-16T02:23:42.386Z,1003.44
2019-01-16T02:24:42.370Z,1003.38
2019-01-16T02:25:42.361Z,1003.50
2019-01-16T02:26:42.362Z,1003.57
2019-01-16T02:27:42.340Z,1003.48
2019-01-16T02:28:42.333Z,1003.62
2019-01-16T02:29:42.316Z,1003.57
2019-01-16T02:30:42.310Z,1003.52
2019-01-16T02:31:42.329Z,1003.61
2019-01-16T02:32:42.284Z,1003.54
2019-01-16T02:33:42.273Z,1003.64
2019-01-16T02:34:42.262Z,1003.63
2019-01-16T02:35:42.254Z,1003.52
2019-01-16T02:36:42.240Z,1003.54
2019-01-16T02:37:42.247Z,1003.54
2019-01-16T02:38:42.220Z,1003.60
2019-01-16T02:39:42.210Z,1003.62
2019-01-16T02:40:42.208Z,1003.59
2019-01-16T02:41:42.187Z,1003.64
2019-01-16T02:42:42.192Z,1003.62
2019-01-16T02:43:42.169Z,1003.57
2019-01-16T02:44:42.157Z,1003.65
2019-01-16T02:45:42.150Z,1003.69
2019-01-16T02:46:42.134Z,1003.67
2019-01-16T02:47:42.137Z,1003.70
2019-01-16T02:48:42.117Z,1003.70
2019-01-16T02:49:42.104Z,1003.75
2019-01-16T02:50:42.092Z,1003.73
2019-01-16T02:51:42.082Z,1003.73
2019-01-16T02:52:42.082Z,1003.69
2019-01-16T02:53:42.061Z,1003.71
2019-01-16T02:54:42.049Z,1003.73
2019-01-16T02:55:42.040Z,1003.70
2019-01-16T02:56:42.029Z,1003.76
2019-01-16T02:57:42.026Z,1003.65
2019-01-16T02:58:42.009Z,1003.73
2019-01-16T02:59:41.998Z,1003.75
2019-01-16T03:00:41.989Z,1003.72
2019-01-16T03:01:41.974Z,1003.81
2019-01-16T03:02:41.976Z,1003.75
2019-01-16T03:03:41.953Z,1003.69
2019-01-16T03:04:41.942Z,1003.77
2019-01-16T03:05:41.934Z,1003.73
2019-01-16T03:06:41.929Z,1003.79
2019-01-16T03:07:41.920Z,1003.76
2019-01-16T03:08:41.898Z,1003.78
2019-01-16T03:09:41.890Z,1003.77
2019-01-16T03:10:41.884Z,1003.81
2019-01-16T03:11:41.867Z,1003.79
2019-01-16T03:12:41.873Z,1003.75
2019-01-16T03:13:41.846Z,1003.77
2019-01-16T03:14:41.833Z,1003.79
2019-01-16T03:15:41.825Z,1003.80
2019-01-16T03:16:41.818Z,1003.78
2019-01-16T03:17:41.815Z,1003.83
2019-01-16T03:18:41.796Z,1003.81
2019-01-16T03:19:41.782Z,1003.79
2019-01-16T03:20:41.774Z,1003.81
2019-01-16T03:21:41.766Z,1003.80
2019-01-16T03:22:41.788Z,1003.78
2019-01-16T03:23:41.742Z,1003.80
2019-01-16T03:24:41.728Z,1003.80
2019-01-16T03:25:41.715Z,1003.83
2019-01-16T03:26:41.704Z,1003.89
2019-01-16T03:27:41.698Z,1003.85
2019-01-16T03:28:41.697Z,1003.82
2019-01-16T03:29:41.673Z,1003.82
2019-01-16T03:30:41.670Z,1003.86
2019-01-16T03:31:41.654Z,1003.85
2019-01-16T03:32:41.646Z,1003.87
2019-01-16T03:33:41.642Z,1003.77
2019-01-16T03:34:41.624Z,1003.83
2019-01-16T03:35:41.609Z,1003.85
2019-01-16T03:36:41.597Z,1003.86
2019-01-16T03:37:41.588Z,1003.81
2019-01-16T03:38:41.589Z,1003.86
2019-01-16T03:39:41.578Z,1003.81
2019-01-16T03:40:41.558Z,1003.80
2019-01-16T03:41:41.620Z,1003.82
2019-01-16T03:42:41.534Z,1003.83
2019-01-16T03:43:41.538Z,1003.77
2019-01-16T03:44:41.511Z,1003.81
2019-01-16T03:45:41.508Z,1003.83
2019-01-16T03:46:41.490Z,1003.79
2019-01-16T03:47:41.483Z,1003.81
2019-01-16T03:48:41.481Z,1003.92
2019-01-16T03:49:41.458Z,1003.77
2019-01-16T03:50:41.455Z,1003.80
2019-01-16T03:51:41.441Z,1003.79
2019-01-16T03:52:41.426Z,1003.73
2019-01-16T03:53:41.433Z,1003.74
2019-01-16T03:54:41.419Z,1003.81
2019-01-16T03:55:41.396Z,1003.77
2019-01-16T03:56:41.384Z,1003.77
2019-01-16T03:57:41.377Z,1003.79
2019-01-16T03:58:41.377Z,1003.79
2019-01-16T03:59:41.359Z,1003.75
2019-01-16T04:00:41.342Z,1003.79
2019-01-16T04:01:41.329Z,1003.78
2019-01-16T04:02:41.321Z,1003.85
2019-01-16T04:03:41.320Z,1003.77
2019-01-16T04:04:41.301Z,1003.77
2019-01-16T04:05:41.287Z,1003.69
2019-01-16T04:06:41.292Z,1003.69
2019-01-16T04:07:41.264Z,1003.72
2019-01-16T04:08:41.294Z,1003.67
2019-01-16T04:09:41.245Z,1003.68
2019-01-16T04:10:41.254Z,1003.81
2019-01-16T04:11:41.225Z,1003.72
2019-01-16T04:12:41.215Z,1003.64
2019-01-16T04:13:41.202Z,1003.67
2019-01-16T04:14:41.203Z,1003.62
2019-01-16T04:15:41.178Z,1003.69
2019-01-16T04:16:41.170Z,1003.62
2019-01-16T04:17:41.159Z,1003.66
2019-01-16T04:18:41.148Z,1003.69
2019-01-16T04:19:41.154Z,1003.68
2019-01-16T04:20:41.133Z,1003.62
2019-01-16T04:21:41.113Z,1003.60
2019-01-16T04:22:41.103Z,1003.58
2019-01-16T04:23:41.092Z,1003.58
2019-01-16T04:24:41.097Z,1003.62
2019-01-16T04:25:41.076Z,1003.60
2019-01-16T04:26:41.068Z,1003.59
2019-01-16T04:27:41.074Z,1003.55
2019-01-16T04:28:41.041Z,1003.57
2019-01-16T04:29:41.039Z,1003.57
2019-01-16T04:30:41.019Z,1003.55
2019-01-16T04:31:41.008Z,1003.55
2019-01-16T04:32:41.000Z,1003.51
2019-01-16T04:33:40.986Z,1003.49
2019-01-16T04:34:40.994Z,1003.51
2019-01-16T04:35:40.964Z,1003.50
2019-01-16T04:36:40.954Z,1003.51
2019-01-16T04:37:40.948Z,1003.54
2019-01-16T04:38:40.931Z,1003.51
2019-01-16T04:39:40.953Z,1003.48
2019-01-16T04:40:40.912Z,1003.51
2019-01-16T04:41:40.900Z,1003.49
2019-01-16T04:42:40.891Z,1003.49
2019-01-16T04:43:40.885Z,1003.50
2019-01-16T04:44:40.869Z,1003.55
2019-01-16T04:45:40.871Z,1003.42
2019-01-16T04:46:40.846Z,1003.53
2019-01-16T04:47:40.835Z,1003.49
2019-01-16T04:48:40.828Z,1003.40
2019-01-16T04:49:40.815Z,1003.43
2019-01-16T04:50:40.827Z,1003.41
2019-01-16T04:51:40.795Z,1003.44
2019-01-16T04:52:40.784Z,1003.40
2019-01-16T04:53:40.772Z,1003.37
2019-01-16T04:54:40.759Z,1003.44
2019-01-16T04:55:40.767Z,1003.39
2019-01-16T04:56:40.739Z,1003.40
2019-01-16T04:57:40.734Z,1003.39
2019-01-16T04:58:40.725Z,1003.38
2019-01-16T04:59:40.712Z,1003.37
2019-01-16T05:00:40.712Z,1003.46
2019-01-16T05:01:40.694Z,1003.41
2019-01-16T05:02:40.677Z,1003.42
2019-01-16T05:03:40.666Z,1003.36
2019-01-16T05:04:40.653Z,1003.42
2019-01-16T05:05:40.656Z,1003.38
2019-01-16T05:06:40.631Z,1003.36
2019-01-16T05:07:40.620Z,1003.49
2019-01-16T05:08:40.610Z,1003.40
2019-01-16T05:09:40.598Z,1003.40
2019-01-16T05:10:40.604Z,1003.31
2019-01-16T05:11:40.584Z,1003.38
2019-01-16T05:12:40.566Z,1003.37
2019-01-16T05:13:40.558Z,1003.39
2019-01-16T05:14:40.548Z,1003.39
2019-01-16T05:15:40.550Z,1003.36
2019-01-16T05:16:40.528Z,1003.30
2019-01-16T05:17:40.517Z,1003.37
2019-01-16T05:18:41.574Z,1003.45
2019-01-16T05:19:40.491Z,1003.41
2019-01-16T05:20:40.500Z,1003.46
2019-01-16T05:21:40.472Z,1003.50
2019-01-16T05:22:40.462Z,1003.49
2019-01-16T05:23:40.452Z,1003.49
2019-01-16T05:24:40.439Z,1003.49
2019-01-16T05:25:40.471Z,1003.53
2019-01-16T05:26:40.418Z,1003.55
2019-01-16T05:27:40.408Z,1003.55
2019-01-16T05:28:40.399Z,1003.45
2019-01-16T05:29:40.386Z,1003.52
2019-01-16T05:30:40.387Z,1003.44
2019-01-16T05:31:40.381Z,1003.51
2019-01-16T05:32:40.358Z,1003.55
2019-01-16T05:33:40.344Z,1003.42
2019-01-16T05:34:40.340Z,1003.56
2019-01-16T05:35:40.323Z,1003.50
2019-01-16T05:36:40.322Z,1003.56
2019-01-16T05:37:40.298Z,1003.57
2019-01-16T05:38:40.291Z,1003.56
2019-01-16T05:39:40.277Z,1003.57
2019-01-16T05:40:40.271Z,1003.56
2019-01-16T05:41:40.272Z,1003.62
2019-01-16T05:42:40.250Z,1003.61
2019-01-16T05:43:40.239Z,1003.56
2019-01-16T05:44:40.224Z,1003.54
2019-01-16T05:45:40.217Z,1003.52
2019-01-16T05:46:40.220Z,1003.53
2019-01-16T05:47:40.196Z,1003.57
2019-01-16T05:48:40.180Z,1003.60
2019-01-16T05:49:46.625Z,1003.59
2019-01-16T05:50:41.162Z,1003.66
2019-01-16T05:51:40.629Z,1003.57
2019-01-16T05:52:40.138Z,1003.61
2019-01-16T05:53:40.130Z,1003.61
2019-01-16T05:54:40.115Z,1003.60
2019-01-16T05:55:40.105Z,1003.63
2019-01-16T05:56:40.107Z,1003.55
2019-01-16T05:57:40.087Z,1003.54
2019-01-16T05:58:40.075Z,1003.51
2019-01-16T05:59:40.065Z,1003.56
2019-01-16T06:00:40.054Z,1003.55
2019-01-16T06:01:40.054Z,1003.53
2019-01-16T06:02:40.033Z,1003.48
2019-01-16T06:03:40.027Z,1003.56
2019-01-16T06:04:40.023Z,1003.57
2019-01-16T06:05:39.997Z,1003.52
2019-01-16T06:06:39.998Z,1003.57
2019-01-16T06:07:39.990Z,1003.56
2019-01-16T06:08:39.970Z,1003.60
2019-01-16T06:09:39.956Z,1003.60
2019-01-16T06:10:39.946Z,1003.60
2019-01-16T06:11:39.935Z,1003.66
2019-01-16T06:12:39.939Z,1003.68
2019-01-16T06:13:39.912Z,1003.61
2019-01-16T06:14:39.902Z,1003.57
2019-01-16T06:15:39.893Z,1003.62
2019-01-16T06:16:39.885Z,1003.59
2019-01-16T06:17:39.934Z,1003.57
2019-01-16T06:18:40.612Z,1003.51
2019-01-16T06:19:39.851Z,1003.58
2019-01-16T06:20:39.842Z,1003.49
2019-01-16T06:21:39.827Z,1003.56
2019-01-16T06:22:39.825Z,1003.52
2019-01-16T06:23:39.813Z,1003.58
2019-01-16T06:24:40.631Z,1003.60
2019-01-16T06:25:39.788Z,1003.50
2019-01-16T06:26:39.783Z,1003.57
2019-01-16T06:27:39.783Z,1003.57
2019-01-16T06:28:40.619Z,1003.54
2019-01-16T06:29:39.742Z,1003.51
2019-01-16T06:30:39.731Z,1003.55
2019-01-16T06:31:39.723Z,1003.55
2019-01-16T06:32:39.725Z,1003.60
2019-01-16T06:33:39.698Z,1003.57
2019-01-16T06:34:39.689Z,1003.57
2019-01-16T06:35:39.678Z,1003.55
2019-01-16T06:36:39.667Z,1003.62
2019-01-16T06:37:39.685Z,1003.60
2019-01-16T06:38:39.644Z,1003.63
2019-01-16T06:39:39.632Z,1003.54
2019-01-16T06:40:39.623Z,1003.65
2019-01-16T06:41:39.611Z,1003.56
2019-01-16T06:42:39.602Z,1003.50
2019-01-16T06:43:39.605Z,1003.62
2019-01-16T06:44:39.582Z,1003.56
2019-01-16T06:45:39.569Z,1003.59
2019-01-16T06:46:39.559Z,1003.60
2019-01-16T06:47:39.548Z,1003.55
2019-01-16T06:48:39.550Z,1003.60
2019-01-16T06:49:39.530Z,1003.56
2019-01-16T06:50:39.516Z,1003.56
2019-01-16T06:51:39.503Z,1003.63
2019-01-16T06:52:39.492Z,1003.53
2019-01-16T06:53:39.493Z,1003.55
2019-01-16T06:54:39.477Z,1003.53
2019-01-16T06:55:39.487Z,1003.62
2019-01-16T06:56:39.450Z,1003.65
2019-01-16T06:57:39.441Z,1003.66
2019-01-16T06:58:39.440Z,1003.69
2019-01-16T06:59:39.458Z,1003.61
2019-01-16T07:00:39.409Z,1003.62
2019-01-16T07:01:39.398Z,1003.69
2019-01-16T07:02:39.384Z,1003.74
2019-01-16T07:03:39.407Z,1003.73
2019-01-16T07:04:39.366Z,1003.70
2019-01-16T07:05:39.354Z,1003.72
2019-01-16T07:06:39.344Z,1003.71
2019-01-16T07:07:39.333Z,1003.72
2019-01-16T07:08:39.323Z,1003.68
2019-01-16T07:09:39.323Z,1003.71
2019-01-16T07:10:39.301Z,1003.67
2019-01-16T07:11:39.296Z,1003.65
2019-01-16T07:12:39.282Z,1003.72
2019-01-16T07:13:39.269Z,1003.73
2019-01-16T07:14:39.269Z,1003.74
2019-01-16T07:15:39.247Z,1003.81
2019-01-16T07:16:39.245Z,1003.72
2019-01-16T07:17:39.228Z,1003.71
2019-01-16T07:18:39.213Z,1003.72
2019-01-16T07:19:39.214Z,1003.65
2019-01-16T07:20:39.192Z,1003.76
2019-01-16T07:21:39.181Z,1003.78
2019-01-16T07:22:39.174Z,1003.74
2019-01-16T07:23:39.162Z,1003.66
2019-01-16T07:24:39.162Z,1003.73
2019-01-16T07:25:39.138Z,1003.77
2019-01-16T07:26:39.129Z,1003.74
2019-01-16T07:27:39.119Z,1003.72
2019-01-16T07:28:39.107Z,1003.68
2019-01-16T07:29:39.106Z,1003.74
2019-01-16T07:30:39.086Z,1003.75
2019-01-16T07:31:39.075Z,1003.67
2019-01-16T07:32:39.110Z,1003.73
2019-01-16T07:33:39.054Z,1003.73
2019-01-16T07:34:39.066Z,1003.70
2019-01-16T07:35:39.034Z,1003.75
2019-01-16T07:36:39.023Z,1003.85
2019-01-16T07:37:39.012Z,1003.82
2019-01-16T07:38:38.999Z,1003.76
2019-01-16T07:39:38.999Z,1003.78
2019-01-16T07:40:38.982Z,1003.76
2019-01-16T07:41:38.972Z,1003.73
2019-01-16T07:42:46.624Z,1003.77
2019-01-16T07:43:39.947Z,1003.78
2019-01-16T07:44:38.977Z,1003.81
2019-01-16T07:45:38.923Z,1003.86
2019-01-16T07:46:38.912Z,1003.78
2019-01-16T07:47:38.904Z,1003.74
2019-01-16T07:48:38.895Z,1003.74
2019-01-16T07:49:38.881Z,1003.82
2019-01-16T07:50:38.882Z,1003.77
2019-01-16T07:51:38.862Z,1003.78
2019-01-16T07:52:38.849Z,1003.82
2019-01-16T07:53:38.844Z,1003.84
2019-01-16T07:54:38.830Z,1003.73
2019-01-16T07:55:38.828Z,1003.75
2019-01-16T07:56:38.805Z,1003.86
2019-01-16T07:57:38.795Z,1003.74
2019-01-16T07:58:38.790Z,1003.74
2019-01-16T07:59:38.776Z,1003.89
2019-01-16T08:00:38.777Z,1003.84
2019-01-16T08:01:38.754Z,1003.73
2019-01-16T08:02:38.743Z,1003.69
2019-01-16T08:03:38.733Z,1003.75
2019-01-16T08:04:38.723Z,1003.71
2019-01-16T08:05:38.724Z,1003.84
2019-01-16T08:06:38.701Z,1003.77
2019-01-16T08:07:38.688Z,1003.82
2019-01-16T08:08:38.680Z,1003.74
2019-01-16T08:09:38.666Z,1003.76
2019-01-16T08:10:38.671Z,1003.73
2019-01-16T08:11:38.645Z,1003.72
2019-01-16T08:12:38.635Z,1003.73
2019-01-16T08:13:38.627Z,1003.70
2019-01-16T08:14:38.612Z,1003.72
2019-01-16T08:15:38.615Z,1003.71
2019-01-16T08:16:38.597Z,1003.73
2019-01-16T08:17:38.581Z,1003.73
2019-01-16T08:18:38.571Z,1003.68
2019-01-16T08:19:38.561Z,1003.67
2019-01-16T08:20:38.564Z,1003.67
2019-01-16T08:21:38.541Z,1003.71
2019-01-16T08:22:38.528Z,1003.73
2019-01-16T08:23:38.518Z,1003.70
2019-01-16T08:24:38.505Z,1003.70
2019-01-16T08:25:38.533Z,1003.67
2019-01-16T08:26:38.500Z,1003.70
2019-01-16T08:27:38.473Z,1003.70
2019-01-16T08:28:38.463Z,1003.67
2019-01-16T08:29:38.455Z,1003.66
2019-01-16T08:30:38.442Z,1003.64
2019-01-16T08:31:38.444Z,1003.64
2019-01-16T08:32:38.422Z,1003.72
2019-01-16T08:33:38.408Z,1003.63
2019-01-16T08:34:38.411Z,1003.69
2019-01-16T08:35:38.388Z,1003.65
2019-01-16T08:36:38.390Z,1003.75
2019-01-16T08:37:38.365Z,1003.75
2019-01-16T08:38:38.357Z,1003.78
2019-01-16T08:39:38.345Z,1003.69
2019-01-16T08:40:38.334Z,1003.66
2019-01-16T08:41:38.338Z,1003.72
2019-01-16T08:42:38.316Z,1003.67
2019-01-16T08:43:38.306Z,1003.66
2019-01-16T08:44:38.292Z,1003.66
2019-01-16T08:45:38.283Z,1003.73
2019-01-16T08:46:38.283Z,1003.67
2019-01-16T08:47:38.259Z,1003.70
2019-01-16T08:48:38.251Z,1003.72
2019-01-16T08:49:38.236Z,1003.72
2019-01-16T08:50:38.229Z,1003.68
2019-01-16T08:51:38.230Z,1003.75
2019-01-16T08:52:38.210Z,1003.75
2019-01-16T08:53:38.197Z,1003.68
2019-01-16T08:54:38.188Z,1003.77
2019-01-16T08:55:38.172Z,1003.68
2019-01-16T08:56:38.176Z,1003.75
2019-01-16T08:57:38.154Z,1003.68
2019-01-16T08:58:38.140Z,1003.75
2019-01-16T08:59:38.131Z,1003.69
2019-01-16T09:00:38.138Z,1003.72
2019-01-16T09:01:38.119Z,1003.72
2019-01-16T09:02:38.098Z,1003.69
2019-01-16T09:03:38.092Z,1003.75
2019-01-16T09:04:38.076Z,1003.73
2019-01-16T09:05:38.081Z,1003.76
2019-01-16T09:06:38.092Z,1003.72
2019-01-16T09:07:38.045Z,1003.73
2019-01-16T09:08:38.037Z,1003.63
2019-01-16T09:09:38.022Z,1003.81
2019-01-16T09:10:38.016Z,1003.78
2019-01-16T09:11:38.000Z,1003.74
2019-01-16T09:12:38.003Z,1003.74
2019-01-16T09:13:47.165Z,1003.67
2019-01-16T09:14:37.970Z,1003.68
2019-01-16T09:15:37.962Z,1003.69
2019-01-16T09:16:37.950Z,1003.70
2019-01-16T09:17:37.947Z,1003.64
2019-01-16T09:18:37.926Z,1003.62
2019-01-16T09:19:37.917Z,1003.66
2019-01-16T09:20:40.108Z,1003.71
2019-01-16T09:21:37.895Z,1003.65
2019-01-16T09:22:37.903Z,1003.70
2019-01-16T09:23:37.878Z,1003.69
2019-01-16T09:24:37.863Z,1003.68
2019-01-16T09:25:37.852Z,1003.73
2019-01-16T09:26:37.843Z,1003.66
2019-01-16T09:27:37.849Z,1003.68
2019-01-16T09:28:37.826Z,1003.73
2019-01-16T09:29:37.812Z,1003.72
2019-01-16T09:30:37.797Z,1003.71
2019-01-16T09:31:37.787Z,1003.72
2019-01-16T09:32:37.793Z,1003.73
2019-01-16T09:33:37.779Z,1003.77
2019-01-16T09:34:37.757Z,1003.77
2019-01-16T09:35:37.744Z,1003.76
2019-01-16T09:36:37.736Z,1003.70
2019-01-16T09:37:37.735Z,1003.76
2019-01-16T09:38:37.724Z,1003.74
2019-01-16T09:39:37.704Z,1003.71
2019-01-16T09:40:37.690Z,1003.67
2019-01-16T09:41:37.680Z,1003.77
2019-01-16T09:42:37.685Z,1003.69
2019-01-16T09:43:37.660Z,1003.68
2019-01-16T09:44:37.650Z,1003.67
2019-01-16T09:45:37.635Z,1003.72
2019-01-16T09:46:37.633Z,1003.67
2019-01-16T09:47:37.627Z,1003.69
2019-01-16T09:48:37.609Z,1003.70
2019-01-16T09:49:37.593Z,1003.67
2019-01-16T09:50:37.582Z,1003.71
2019-01-16T09:51:37.571Z,1003.67
2019-01-16T09:52:37.596Z,1003.68
2019-01-16T09:53:37.552Z,1003.68
2019-01-16T09:54:37.539Z,1003.67
2019-01-16T09:55:37.531Z,1003.65
2019-01-16T09:56:37.525Z,1003.65
2019-01-16T09:57:37.507Z,1003.63
2019-01-16T09:58:37.512Z,1003.58
2019-01-16T09:59:37.488Z,1003.54
2019-01-16T10:00:37.475Z,1003.58
2019-01-16T10:01:37.464Z,1003.58
2019-01-16T10:02:37.461Z,1003.60
2019-01-16T10:03:37.458Z,1003.59
2019-01-16T10:04:37.433Z,1003.56
2019-01-16T10:05:37.427Z,1003.54
2019-01-16T10:06:37.410Z,1003.65
2019-01-16T10:07:37.403Z,1003.57
2019-01-16T10:08:37.401Z,1003.56
2019-01-16T10:09:37.380Z,1003.48
2019-01-16T10:10:37.367Z,1003.56
2019-01-16T10:11:37.368Z,1003.55
2019-01-16T10:12:37.348Z,1003.53
2019-01-16T10:13:37.357Z,1003.49
2019-01-16T10:14:37.329Z,1003.55
2019-01-16T10:15:37.327Z,1003.43
2019-01-16T10:16:37.331Z,1003.48
2019-01-16T10:17:37.295Z,1003.53
2019-01-16T10:18:37.299Z,1003.51
2019-01-16T10:19:37.275Z,1003.45
2019-01-16T10:20:37.264Z,1003.40
2019-01-16T10:21:37.253Z,1003.49
2019-01-16T10:22:37.239Z,1003.45
2019-01-16T10:23:37.239Z,1003.45
2019-01-16T10:24:37.219Z,1003.50
2019-01-16T10:25:37.207Z,1003.45
2019-01-16T10:26:37.206Z,1003.39
2019-01-16T10:27:37.192Z,1003.47
2019-01-16T10:28:37.216Z,1003.41
2019-01-16T10:29:37.166Z,1003.40
2019-01-16T10:30:37.155Z,1003.38
2019-01-16T10:31:37.147Z,1003.38
2019-01-16T10:32:37.137Z,1003.36
2019-01-16T10:33:37.121Z,1003.41
2019-01-16T10:34:37.122Z,1003.34
2019-01-16T10:35:37.107Z,1003.40
2019-01-16T10:36:37.147Z,1003.29
2019-01-16T10:37:37.082Z,1003.33
2019-01-16T10:38:37.071Z,1003.25
2019-01-16T10:39:37.071Z,1003.29
2019-01-16T10:40:37.046Z,1003.29
2019-01-16T10:41:37.037Z,1003.27
2019-01-16T10:42:37.025Z,1003.24
2019-01-16T10:43:37.016Z,1003.28
2019-01-16T10:44:37.024Z,1003.28
2019-01-16T10:45:37.005Z,1003.20
2019-01-16T10:46:37.009Z,1003.19
2019-01-16T10:47:37.026Z,1003.18
2019-01-16T10:48:36.969Z,1003.29
2019-01-16T10:49:36.977Z,1003.17
2019-01-16T10:50:36.956Z,1003.08
2019-01-16T10:51:36.956Z,1003.08
2019-01-16T10:52:37.099Z,1003.13
2019-01-16T10:53:37.066Z,1003.06
2019-01-16T10:54:36.925Z,1003.14
2019-01-16T10:55:36.938Z,1003.07
2019-01-16T10:56:36.905Z,1003.07
2019-01-16T10:57:36.873Z,1003.11
2019-01-16T10:58:36.863Z,1003.06
2019-01-16T10:59:36.865Z,1003.08
2019-01-16T11:00:36.846Z,1003.10
2019-01-16T11:01:36.830Z,1003.11
2019-01-16T11:02:36.820Z,1003.09
2019-01-16T11:03:36.805Z,1002.94
2019-01-16T11:04:36.815Z,1003.05
2019-01-16T11:05:36.783Z,1003.05
2019-01-16T11:06:36.785Z,1002.94
2019-01-16T11:07:36.764Z,1002.95
2019-01-16T11:08:36.754Z,1002.89
2019-01-16T11:09:36.800Z,1002.95
2019-01-16T11:10:36.779Z,1002.91
2019-01-16T11:11:36.724Z,1002.94
2019-01-16T11:12:36.734Z,1002.90
2019-01-16T11:13:36.747Z,1002.96
2019-01-16T11:14:36.724Z,1002.88
2019-01-16T11:15:36.762Z,1002.92
2019-01-16T11:16:36.683Z,1002.88
2019-01-16T11:17:37.651Z,1002.83
2019-01-16T11:18:36.696Z,1002.84
2019-01-16T11:19:36.671Z,1002.85
2019-01-16T11:20:36.641Z,1002.81
2019-01-16T11:21:36.616Z,1002.78
2019-01-16T11:22:36.602Z,1002.79
2019-01-16T11:23:36.624Z,1002.81
2019-01-16T11:24:36.657Z,1002.71
2019-01-16T11:25:36.633Z,1002.76
2019-01-16T11:26:36.691Z,1002.76
2019-01-16T11:27:36.596Z,1002.71
2019-01-16T11:28:36.540Z,1002.68
2019-01-16T11:29:36.526Z,1002.71
2019-01-16T11:30:36.559Z,1002.73
2019-01-16T11:31:36.507Z,1002.75
2019-01-16T11:32:36.501Z,1002.70
2019-01-16T11:33:36.507Z,1002.65
2019-01-16T11:34:36.482Z,1002.62
2019-01-16T11:35:36.492Z,1002.68
2019-01-16T11:36:36.529Z,1002.69
2019-01-16T11:37:36.447Z,1002.64
2019-01-16T11:38:36.433Z,1002.66
2019-01-16T11:39:36.426Z,1002.59
2019-01-16T11:40:36.462Z,1002.59
2019-01-16T11:41:36.401Z,1002.57
2019-01-16T11:42:36.386Z,1002.57
2019-01-16T11:43:36.386Z,1002.64
2019-01-16T11:44:36.398Z,1002.56
2019-01-16T11:45:36.451Z,1002.53
2019-01-16T11:46:36.379Z,1002.55
2019-01-16T11:47:36.385Z,1002.52
2019-01-16T11:48:36.380Z,1002.53
2019-01-16T11:49:36.317Z,1002.57
2019-01-16T11:50:36.559Z,1002.53
2019-01-16T11:51:36.310Z,1002.52
2019-01-16T11:52:36.291Z,1002.53
2019-01-16T11:53:36.274Z,1002.53
2019-01-16T11:54:36.443Z,1002.52
2019-01-16T11:55:36.282Z,1002.63
2019-01-16T11:56:36.258Z,1002.53
2019-01-16T11:57:36.234Z,1002.57
2019-01-16T11:58:36.242Z,1002.60
2019-01-16T11:59:36.206Z,1002.62
2019-01-16T12:00:36.194Z,1002.54
2019-01-16T12:01:36.202Z,1002.48
2019-01-16T12:02:38.668Z,1002.54
2019-01-16T12:03:36.185Z,1002.50
2019-01-16T12:04:36.158Z,1002.55
2019-01-16T12:05:36.146Z,1002.49